sensor_id;sensor_type;location;lat;lon;timestamp;P1;durP1;ratioP1;P2;durP2;ratioP2
81508;SDS011;70930;52.412;13.554;2023-11-21T00:00:14;3.33;;;1.90;;
81508;SDS011;70930;52.412;13.554;2023-11-21T00:02:40;6.32;;;2.17;;
81508;SDS011;70930;52.412;13.554;2023-11-21T00:05:07;5.72;;;2.05;;
81508;SDS011;70930;52.412;13.554;2023-11-21T00:07:34;5.07;;;1.85;;
81508;SDS011;70930;52.412;13.554;2023-11-21T00:10:00;4.68;;;1.98;;
81508;SDS011;70930;52.412;13.554;2023-11-21T00:12:25;7.15;;;3.20;;
81508;SDS011;70930;52.412;13.554;2023-11-21T00:14:50;3.15;;;2.40;;
81508;SDS011;70930;52.412;13.554;2023-11-21T00:17:15;4.63;;;2.72;;
81508;SDS011;70930;52.412;13.554;2023-11-21T00:19:41;4.40;;;2.83;;
81508;SDS011;70930;52.412;13.554;2023-11-21T00:22:08;6.50;;;3.55;;
81508;SDS011;70930;52.412;13.554;2023-11-21T00:24:34;5.72;;;3.67;;
81508;SDS011;70930;52.412;13.554;2023-11-21T00:26:59;5.65;;;3.63;;
81508;SDS011;70930;52.412;13.554;2023-11-21T00:29:25;5.03;;;3.28;;
81508;SDS011;70930;52.412;13.554;2023-11-21T00:31:50;5.82;;;3.50;;
81508;SDS011;70930;52.412;13.554;2023-11-21T00:34:16;6.32;;;4.20;;
81508;SDS011;70930;52.412;13.554;2023-11-21T00:36:41;8.10;;;4.68;;
81508;SDS011;70930;52.412;13.554;2023-11-21T00:39:07;8.88;;;5.28;;
81508;SDS011;70930;52.412;13.554;2023-11-21T00:41:32;11.60;;;5.18;;
81508;SDS011;70930;52.412;13.554;2023-11-21T00:43:58;8.10;;;5.32;;
81508;SDS011;70930;52.412;13.554;2023-11-21T00:46:24;11.40;;;5.95;;
81508;SDS011;70930;52.412;13.554;2023-11-21T00:48:52;16.83;;;8.32;;
81508;SDS011;70930;52.412;13.554;2023-11-21T00:51:19;14.70;;;8.23;;
81508;SDS011;70930;52.412;13.554;2023-11-21T00:53:44;12.07;;;6.60;;
81508;SDS011;70930;52.412;13.554;2023-11-21T00:56:09;12.52;;;7.72;;
81508;SDS011;70930;52.412;13.554;2023-11-21T00:58:35;16.10;;;9.05;;
81508;SDS011;70930;52.412;13.554;2023-11-21T01:01:00;19.83;;;8.85;;
81508;SDS011;70930;52.412;13.554;2023-11-21T01:03:25;22.58;;;8.95;;
81508;SDS011;70930;52.412;13.554;2023-11-21T01:05:51;15.73;;;8.23;;
81508;SDS011;70930;52.412;13.554;2023-11-21T01:08:16;20.63;;;9.15;;
81508;SDS011;70930;52.412;13.554;2023-11-21T01:10:42;21.88;;;10.15;;
81508;SDS011;70930;52.412;13.554;2023-11-21T01:13:07;24.88;;;10.60;;
81508;SDS011;70930;52.412;13.554;2023-11-21T01:15:33;22.05;;;10.63;;
81508;SDS011;70930;52.412;13.554;2023-11-21T01:17:58;23.63;;;11.40;;
81508;SDS011;70930;52.412;13.554;2023-11-21T01:20:24;25.13;;;11.40;;
81508;SDS011;70930;52.412;13.554;2023-11-21T01:22:49;21.63;;;10.73;;
81508;SDS011;70930;52.412;13.554;2023-11-21T01:25:14;29.25;;;11.90;;
81508;SDS011;70930;52.412;13.554;2023-11-21T01:27:41;25.88;;;12.45;;
81508;SDS011;70930;52.412;13.554;2023-11-21T01:30:07;33.70;;;13.68;;
81508;SDS011;70930;52.412;13.554;2023-11-21T01:32:33;29.90;;;13.43;;
81508;SDS011;70930;52.412;13.554;2023-11-21T01:34:59;29.10;;;12.80;;
81508;SDS011;70930;52.412;13.554;2023-11-21T01:37:24;31.70;;;14.07;;
81508;SDS011;70930;52.412;13.554;2023-11-21T01:39:52;25.02;;;12.52;;
81508;SDS011;70930;52.412;13.554;2023-11-21T01:42:19;28.02;;;12.50;;
81508;SDS011;70930;52.412;13.554;2023-11-21T01:44:45;31.08;;;13.25;;
81508;SDS011;70930;52.412;13.554;2023-11-21T01:47:11;50.88;;;17.02;;
81508;SDS011;70930;52.412;13.554;2023-11-21T01:49:37;34.17;;;14.27;;
81508;SDS011;70930;52.412;13.554;2023-11-21T01:52:03;30.67;;;13.75;;
81508;SDS011;70930;52.412;13.554;2023-11-21T01:54:29;42.97;;;15.23;;
81508;SDS011;70930;52.412;13.554;2023-11-21T01:56:57;28.73;;;13.00;;
81508;SDS011;70930;52.412;13.554;2023-11-21T01:59:27;25.75;;;12.45;;
81508;SDS011;70930;52.412;13.554;2023-11-21T02:01:58;30.95;;;13.45;;
81508;SDS011;70930;52.412;13.554;2023-11-21T02:04:24;26.73;;;13.52;;
81508;SDS011;70930;52.412;13.554;2023-11-21T02:06:50;32.72;;;11.57;;
81508;SDS011;70930;52.412;13.554;2023-11-21T02:09:16;27.15;;;12.40;;
81508;SDS011;70930;52.412;13.554;2023-11-21T02:11:42;31.27;;;11.40;;
81508;SDS011;70930;52.412;13.554;2023-11-21T02:14:08;36.08;;;14.82;;
81508;SDS011;70930;52.412;13.554;2023-11-21T02:16:34;38.97;;;14.45;;
81508;SDS011;70930;52.412;13.554;2023-11-21T02:19:01;34.40;;;13.65;;
81508;SDS011;70930;52.412;13.554;2023-11-21T02:21:28;39.40;;;14.48;;
81508;SDS011;70930;52.412;13.554;2023-11-21T02:23:55;41.60;;;15.30;;
81508;SDS011;70930;52.412;13.554;2023-11-21T02:26:20;45.95;;;15.38;;
81508;SDS011;70930;52.412;13.554;2023-11-21T02:28:45;46.75;;;15.25;;
81508;SDS011;70930;52.412;13.554;2023-11-21T02:31:11;30.77;;;12.70;;
81508;SDS011;70930;52.412;13.554;2023-11-21T02:33:37;41.45;;;14.75;;
81508;SDS011;70930;52.412;13.554;2023-11-21T02:36:03;41.70;;;15.05;;
81508;SDS011;70930;52.412;13.554;2023-11-21T02:38:28;43.03;;;13.63;;
81508;SDS011;70930;52.412;13.554;2023-11-21T02:40:55;34.35;;;10.63;;
81508;SDS011;70930;52.412;13.554;2023-11-21T02:43:23;44.58;;;14.38;;
81508;SDS011;70930;52.412;13.554;2023-11-21T02:45:48;45.55;;;13.07;;
81508;SDS011;70930;52.412;13.554;2023-11-21T02:48:14;31.30;;;11.05;;
81508;SDS011;70930;52.412;13.554;2023-11-21T02:50:39;27.38;;;9.65;;
81508;SDS011;70930;52.412;13.554;2023-11-21T02:53:04;34.00;;;10.32;;
81508;SDS011;70930;52.412;13.554;2023-11-21T02:55:30;32.22;;;9.98;;
81508;SDS011;70930;52.412;13.554;2023-11-21T02:57:59;32.30;;;11.10;;
81508;SDS011;70930;52.412;13.554;2023-11-21T03:00:25;22.33;;;9.40;;
81508;SDS011;70930;52.412;13.554;2023-11-21T03:02:50;21.88;;;8.40;;
81508;SDS011;70930;52.412;13.554;2023-11-21T03:05:15;25.73;;;9.52;;
81508;SDS011;70930;52.412;13.554;2023-11-21T03:07:41;23.40;;;8.88;;
81508;SDS011;70930;52.412;13.554;2023-11-21T03:10:07;22.88;;;8.57;;
81508;SDS011;70930;52.412;13.554;2023-11-21T03:12:36;16.15;;;7.70;;
81508;SDS011;70930;52.412;13.554;2023-11-21T03:15:03;18.90;;;8.13;;
81508;SDS011;70930;52.412;13.554;2023-11-21T03:17:31;15.93;;;7.30;;
81508;SDS011;70930;52.412;13.554;2023-11-21T03:19:56;19.25;;;7.50;;
81508;SDS011;70930;52.412;13.554;2023-11-21T03:22:22;19.17;;;7.68;;
81508;SDS011;70930;52.412;13.554;2023-11-21T03:24:47;15.68;;;7.13;;
81508;SDS011;70930;52.412;13.554;2023-11-21T03:27:13;13.38;;;7.00;;
81508;SDS011;70930;52.412;13.554;2023-11-21T03:29:38;15.35;;;7.13;;
81508;SDS011;70930;52.412;13.554;2023-11-21T03:32:04;14.50;;;7.03;;
81508;SDS011;70930;52.412;13.554;2023-11-21T03:34:30;17.27;;;8.02;;
81508;SDS011;70930;52.412;13.554;2023-11-21T03:36:55;17.10;;;7.53;;
81508;SDS011;70930;52.412;13.554;2023-11-21T03:39:20;20.02;;;7.55;;
81508;SDS011;70930;52.412;13.554;2023-11-21T03:41:46;29.38;;;10.32;;
81508;SDS011;70930;52.412;13.554;2023-11-21T03:44:11;13.27;;;6.57;;
81508;SDS011;70930;52.412;13.554;2023-11-21T03:46:37;16.05;;;7.20;;
81508;SDS011;70930;52.412;13.554;2023-11-21T03:49:02;16.38;;;6.80;;
81508;SDS011;70930;52.412;13.554;2023-11-21T03:51:28;15.68;;;7.60;;
81508;SDS011;70930;52.412;13.554;2023-11-21T03:53:53;16.23;;;8.13;;
81508;SDS011;70930;52.412;13.554;2023-11-21T03:56:19;15.18;;;7.57;;
81508;SDS011;70930;52.412;13.554;2023-11-21T03:58:46;14.35;;;7.07;;
81508;SDS011;70930;52.412;13.554;2023-11-21T04:01:18;14.15;;;7.25;;
81508;SDS011;70930;52.412;13.554;2023-11-21T04:03:46;11.20;;;6.05;;
81508;SDS011;70930;52.412;13.554;2023-11-21T04:06:12;9.75;;;5.82;;
81508;SDS011;70930;52.412;13.554;2023-11-21T04:08:37;11.88;;;6.82;;
81508;SDS011;70930;52.412;13.554;2023-11-21T04:11:02;11.80;;;6.73;;
81508;SDS011;70930;52.412;13.554;2023-11-21T04:13:29;12.05;;;6.63;;
81508;SDS011;70930;52.412;13.554;2023-11-21T04:15:55;11.45;;;5.63;;
81508;SDS011;70930;52.412;13.554;2023-11-21T04:18:20;10.85;;;5.70;;
81508;SDS011;70930;52.412;13.554;2023-11-21T04:20:46;8.85;;;5.50;;
81508;SDS011;70930;52.412;13.554;2023-11-21T04:23:11;10.77;;;5.60;;
81508;SDS011;70930;52.412;13.554;2023-11-21T04:25:38;10.07;;;5.65;;
81508;SDS011;70930;52.412;13.554;2023-11-21T04:28:04;8.80;;;5.30;;
81508;SDS011;70930;52.412;13.554;2023-11-21T04:30:29;10.15;;;6.00;;
81508;SDS011;70930;52.412;13.554;2023-11-21T04:32:54;12.40;;;6.63;;
81508;SDS011;70930;52.412;13.554;2023-11-21T04:35:20;10.93;;;5.40;;
81508;SDS011;70930;52.412;13.554;2023-11-21T04:37:45;10.13;;;6.18;;
81508;SDS011;70930;52.412;13.554;2023-11-21T04:40:11;10.43;;;5.63;;
81508;SDS011;70930;52.412;13.554;2023-11-21T04:42:36;8.18;;;4.80;;
81508;SDS011;70930;52.412;13.554;2023-11-21T04:45:03;12.05;;;5.60;;
81508;SDS011;70930;52.412;13.554;2023-11-21T04:47:33;8.82;;;4.97;;
81508;SDS011;70930;52.412;13.554;2023-11-21T04:49:58;9.10;;;4.88;;
81508;SDS011;70930;52.412;13.554;2023-11-21T04:52:24;7.68;;;4.53;;
81508;SDS011;70930;52.412;13.554;2023-11-21T04:54:49;9.43;;;4.90;;
81508;SDS011;70930;52.412;13.554;2023-11-21T04:57:15;10.48;;;4.88;;
81508;SDS011;70930;52.412;13.554;2023-11-21T04:59:43;7.55;;;4.25;;
81508;SDS011;70930;52.412;13.554;2023-11-21T05:02:08;6.88;;;3.97;;
81508;SDS011;70930;52.412;13.554;2023-11-21T05:04:33;7.93;;;4.80;;
81508;SDS011;70930;52.412;13.554;2023-11-21T05:06:59;6.65;;;4.35;;
81508;SDS011;70930;52.412;13.554;2023-11-21T05:09:25;8.07;;;4.25;;
81508;SDS011;70930;52.412;13.554;2023-11-21T05:11:50;6.88;;;4.05;;
81508;SDS011;70930;52.412;13.554;2023-11-21T05:14:16;9.25;;;4.38;;
81508;SDS011;70930;52.412;13.554;2023-11-21T05:16:43;7.30;;;4.15;;
81508;SDS011;70930;52.412;13.554;2023-11-21T05:19:08;7.70;;;4.60;;
81508;SDS011;70930;52.412;13.554;2023-11-21T05:21:34;5.63;;;3.50;;
81508;SDS011;70930;52.412;13.554;2023-11-21T05:24:01;6.32;;;4.05;;
81508;SDS011;70930;52.412;13.554;2023-11-21T05:26:26;6.45;;;3.50;;
81508;SDS011;70930;52.412;13.554;2023-11-21T05:28:52;6.25;;;3.50;;
81508;SDS011;70930;52.412;13.554;2023-11-21T05:31:18;7.63;;;4.05;;
81508;SDS011;70930;52.412;13.554;2023-11-21T05:33:43;6.30;;;3.20;;
81508;SDS011;70930;52.412;13.554;2023-11-21T05:36:10;5.80;;;3.45;;
81508;SDS011;70930;52.412;13.554;2023-11-21T05:38:35;5.60;;;3.17;;
81508;SDS011;70930;52.412;13.554;2023-11-21T05:41:01;6.60;;;3.75;;
81508;SDS011;70930;52.412;13.554;2023-11-21T05:43:28;4.95;;;3.15;;
81508;SDS011;70930;52.412;13.554;2023-11-21T05:45:55;6.60;;;3.50;;
81508;SDS011;70930;52.412;13.554;2023-11-21T05:48:21;6.43;;;3.40;;
81508;SDS011;70930;52.412;13.554;2023-11-21T05:50:47;6.68;;;3.53;;
81508;SDS011;70930;52.412;13.554;2023-11-21T05:53:14;6.13;;;3.45;;
81508;SDS011;70930;52.412;13.554;2023-11-21T05:55:40;6.38;;;3.38;;
81508;SDS011;70930;52.412;13.554;2023-11-21T05:58:06;6.53;;;4.18;;
81508;SDS011;70930;52.412;13.554;2023-11-21T06:00:32;6.82;;;3.55;;
81508;SDS011;70930;52.412;13.554;2023-11-21T06:02:58;6.97;;;3.70;;
81508;SDS011;70930;52.412;13.554;2023-11-21T06:05:24;6.75;;;3.92;;
81508;SDS011;70930;52.412;13.554;2023-11-21T06:07:50;7.45;;;4.18;;
81508;SDS011;70930;52.412;13.554;2023-11-21T06:10:17;8.20;;;4.72;;
81508;SDS011;70930;52.412;13.554;2023-11-21T06:12:44;7.07;;;4.15;;
81508;SDS011;70930;52.412;13.554;2023-11-21T06:15:10;11.60;;;4.45;;
81508;SDS011;70930;52.412;13.554;2023-11-21T06:17:38;8.43;;;4.45;;
81508;SDS011;70930;52.412;13.554;2023-11-21T06:20:05;7.18;;;4.38;;
81508;SDS011;70930;52.412;13.554;2023-11-21T06:22:41;8.10;;;5.07;;
81508;SDS011;70930;52.412;13.554;2023-11-21T06:25:07;9.25;;;4.47;;
81508;SDS011;70930;52.412;13.554;2023-11-21T06:27:38;6.97;;;4.07;;
81508;SDS011;70930;52.412;13.554;2023-11-21T06:30:05;7.28;;;3.97;;
81508;SDS011;70930;52.412;13.554;2023-11-21T06:32:34;6.38;;;3.53;;
81508;SDS011;70930;52.412;13.554;2023-11-21T06:35:00;6.97;;;4.38;;
81508;SDS011;70930;52.412;13.554;2023-11-21T06:37:27;8.68;;;4.43;;
81508;SDS011;70930;52.412;13.554;2023-11-21T06:39:54;6.07;;;3.95;;
81508;SDS011;70930;52.412;13.554;2023-11-21T06:42:19;7.07;;;4.35;;
81508;SDS011;70930;52.412;13.554;2023-11-21T06:44:45;6.65;;;3.90;;
81508;SDS011;70930;52.412;13.554;2023-11-21T06:47:11;6.55;;;4.28;;
81508;SDS011;70930;52.412;13.554;2023-11-21T06:49:37;7.97;;;4.80;;
81508;SDS011;70930;52.412;13.554;2023-11-21T06:52:03;6.63;;;3.97;;
81508;SDS011;70930;52.412;13.554;2023-11-21T06:54:30;6.78;;;4.18;;
81508;SDS011;70930;52.412;13.554;2023-11-21T06:56:56;7.60;;;5.20;;
81508;SDS011;70930;52.412;13.554;2023-11-21T06:59:22;8.20;;;4.82;;
81508;SDS011;70930;52.412;13.554;2023-11-21T07:01:47;8.77;;;4.78;;
81508;SDS011;70930;52.412;13.554;2023-11-21T07:04:12;10.30;;;5.70;;
81508;SDS011;70930;52.412;13.554;2023-11-21T07:06:38;9.90;;;5.75;;
81508;SDS011;70930;52.412;13.554;2023-11-21T07:09:03;8.60;;;4.80;;
81508;SDS011;70930;52.412;13.554;2023-11-21T07:11:29;7.38;;;4.88;;
81508;SDS011;70930;52.412;13.554;2023-11-21T07:13:54;7.20;;;4.22;;
81508;SDS011;70930;52.412;13.554;2023-11-21T07:16:19;6.30;;;4.30;;
81508;SDS011;70930;52.412;13.554;2023-11-21T07:18:45;6.95;;;4.30;;
81508;SDS011;70930;52.412;13.554;2023-11-21T07:21:10;6.20;;;3.45;;
81508;SDS011;70930;52.412;13.554;2023-11-21T07:23:37;7.57;;;4.47;;
81508;SDS011;70930;52.412;13.554;2023-11-21T07:26:03;6.68;;;3.83;;
81508;SDS011;70930;52.412;13.554;2023-11-21T07:28:33;8.18;;;5.15;;
81508;SDS011;70930;52.412;13.554;2023-11-21T07:30:59;7.30;;;4.43;;
81508;SDS011;70930;52.412;13.554;2023-11-21T07:33:25;8.23;;;4.38;;
81508;SDS011;70930;52.412;13.554;2023-11-21T07:35:50;9.32;;;4.75;;
81508;SDS011;70930;52.412;13.554;2023-11-21T07:38:16;6.57;;;3.95;;
81508;SDS011;70930;52.412;13.554;2023-11-21T07:40:42;8.95;;;4.00;;
81508;SDS011;70930;52.412;13.554;2023-11-21T07:43:08;9.27;;;4.63;;
81508;SDS011;70930;52.412;13.554;2023-11-21T07:45:34;8.57;;;4.13;;
81508;SDS011;70930;52.412;13.554;2023-11-21T07:47:59;8.98;;;4.50;;
81508;SDS011;70930;52.412;13.554;2023-11-21T07:50:25;8.68;;;4.40;;
81508;SDS011;70930;52.412;13.554;2023-11-21T07:52:51;12.63;;;4.47;;
81508;SDS011;70930;52.412;13.554;2023-11-21T07:55:19;12.98;;;5.32;;
81508;SDS011;70930;52.412;13.554;2023-11-21T07:57:44;10.35;;;4.60;;
81508;SDS011;70930;52.412;13.554;2023-11-21T08:00:10;13.00;;;5.22;;
81508;SDS011;70930;52.412;13.554;2023-11-21T08:02:37;15.50;;;5.35;;
81508;SDS011;70930;52.412;13.554;2023-11-21T08:05:11;15.70;;;4.88;;
81508;SDS011;70930;52.412;13.554;2023-11-21T08:07:36;10.00;;;4.70;;
81508;SDS011;70930;52.412;13.554;2023-11-21T08:10:02;13.98;;;4.80;;
81508;SDS011;70930;52.412;13.554;2023-11-21T08:12:29;13.23;;;5.35;;
81508;SDS011;70930;52.412;13.554;2023-11-21T08:14:55;17.67;;;7.10;;
81508;SDS011;70930;52.412;13.554;2023-11-21T08:17:20;15.23;;;6.05;;
81508;SDS011;70930;52.412;13.554;2023-11-21T08:19:46;13.90;;;5.45;;
81508;SDS011;70930;52.412;13.554;2023-11-21T08:22:14;15.10;;;6.07;;
81508;SDS011;70930;52.412;13.554;2023-11-21T08:24:41;18.67;;;6.20;;
81508;SDS011;70930;52.412;13.554;2023-11-21T08:27:06;15.80;;;6.15;;
81508;SDS011;70930;52.412;13.554;2023-11-21T08:29:32;13.30;;;6.30;;
81508;SDS011;70930;52.412;13.554;2023-11-21T08:31:57;18.30;;;6.72;;
81508;SDS011;70930;52.412;13.554;2023-11-21T08:34:22;15.15;;;6.18;;
81508;SDS011;70930;52.412;13.554;2023-11-21T08:36:48;19.15;;;7.68;;
81508;SDS011;70930;52.412;13.554;2023-11-21T08:39:16;19.50;;;6.32;;
81508;SDS011;70930;52.412;13.554;2023-11-21T08:41:44;19.02;;;7.03;;
81508;SDS011;70930;52.412;13.554;2023-11-21T08:44:09;17.17;;;5.97;;
81508;SDS011;70930;52.412;13.554;2023-11-21T08:46:34;13.68;;;6.03;;
81508;SDS011;70930;52.412;13.554;2023-11-21T08:49:04;9.57;;;4.55;;
81508;SDS011;70930;52.412;13.554;2023-11-21T08:51:29;12.75;;;4.72;;
81508;SDS011;70930;52.412;13.554;2023-11-21T08:53:55;15.00;;;5.13;;
81508;SDS011;70930;52.412;13.554;2023-11-21T08:56:24;10.75;;;4.20;;
81508;SDS011;70930;52.412;13.554;2023-11-21T08:58:50;7.70;;;3.45;;
81508;SDS011;70930;52.412;13.554;2023-11-21T09:01:15;6.75;;;3.10;;
81508;SDS011;70930;52.412;13.554;2023-11-21T09:03:41;6.20;;;2.50;;
81508;SDS011;70930;52.412;13.554;2023-11-21T09:06:06;6.50;;;2.83;;
81508;SDS011;70930;52.412;13.554;2023-11-21T09:08:34;5.63;;;3.65;;
81508;SDS011;70930;52.412;13.554;2023-11-21T09:10:59;6.07;;;3.13;;
81508;SDS011;70930;52.412;13.554;2023-11-21T09:13:25;4.90;;;2.47;;
81508;SDS011;70930;52.412;13.554;2023-11-21T09:15:50;6.30;;;3.20;;
81508;SDS011;70930;52.412;13.554;2023-11-21T09:18:16;4.97;;;3.28;;
81508;SDS011;70930;52.412;13.554;2023-11-21T09:20:42;6.53;;;3.00;;
81508;SDS011;70930;52.412;13.554;2023-11-21T09:23:09;4.55;;;2.65;;
81508;SDS011;70930;52.412;13.554;2023-11-21T09:25:34;7.32;;;2.72;;
81508;SDS011;70930;52.412;13.554;2023-11-21T09:27:59;5.60;;;2.25;;
81508;SDS011;70930;52.412;13.554;2023-11-21T09:30:25;5.22;;;2.78;;
81508;SDS011;70930;52.412;13.554;2023-11-21T09:32:51;5.32;;;3.30;;
81508;SDS011;70930;52.412;13.554;2023-11-21T09:35:16;6.22;;;2.63;;
81508;SDS011;70930;52.412;13.554;2023-11-21T09:37:45;6.50;;;2.80;;
81508;SDS011;70930;52.412;13.554;2023-11-21T09:40:11;6.00;;;3.17;;
81508;SDS011;70930;52.412;13.554;2023-11-21T09:42:39;5.32;;;2.72;;
81508;SDS011;70930;52.412;13.554;2023-11-21T09:47:38;4.30;;;2.70;;
81508;SDS011;70930;52.412;13.554;2023-11-21T09:50:03;5.85;;;3.30;;
81508;SDS011;70930;52.412;13.554;2023-11-21T09:52:32;5.95;;;3.03;;
81508;SDS011;70930;52.412;13.554;2023-11-21T09:55:09;5.90;;;3.90;;
81508;SDS011;70930;52.412;13.554;2023-11-21T09:57:38;7.25;;;4.47;;
81508;SDS011;70930;52.412;13.554;2023-11-21T10:00:04;6.80;;;3.15;;
81508;SDS011;70930;52.412;13.554;2023-11-21T10:02:30;5.25;;;3.17;;
81508;SDS011;70930;52.412;13.554;2023-11-21T10:05:01;2.95;;;2.13;;
81508;SDS011;70930;52.412;13.554;2023-11-21T10:07:27;5.28;;;2.60;;
81508;SDS011;70930;52.412;13.554;2023-11-21T10:09:56;3.38;;;2.10;;
81508;SDS011;70930;52.412;13.554;2023-11-21T10:12:24;2.83;;;2.03;;
81508;SDS011;70930;52.412;13.554;2023-11-21T10:14:52;3.72;;;2.15;;
81508;SDS011;70930;52.412;13.554;2023-11-21T10:17:20;3.38;;;2.20;;
81508;SDS011;70930;52.412;13.554;2023-11-21T10:19:51;3.25;;;1.70;;
81508;SDS011;70930;52.412;13.554;2023-11-21T10:22:18;2.25;;;1.50;;
81508;SDS011;70930;52.412;13.554;2023-11-21T10:24:45;2.35;;;1.45;;
81508;SDS011;70930;52.412;13.554;2023-11-21T10:27:11;2.20;;;1.50;;
81508;SDS011;70930;52.412;13.554;2023-11-21T10:29:36;2.28;;;1.48;;
81508;SDS011;70930;52.412;13.554;2023-11-21T10:32:02;2.80;;;1.33;;
81508;SDS011;70930;52.412;13.554;2023-11-21T10:34:28;2.35;;;1.40;;
81508;SDS011;70930;52.412;13.554;2023-11-21T10:36:54;1.58;;;1.30;;
81508;SDS011;70930;52.412;13.554;2023-11-21T10:39:22;1.67;;;1.20;;
81508;SDS011;70930;52.412;13.554;2023-11-21T10:41:52;2.67;;;1.35;;
81508;SDS011;70930;52.412;13.554;2023-11-21T10:44:17;2.03;;;1.20;;
81508;SDS011;70930;52.412;13.554;2023-11-21T10:46:51;3.00;;;2.15;;
81508;SDS011;70930;52.412;13.554;2023-11-21T10:49:20;2.55;;;1.48;;
81508;SDS011;70930;52.412;13.554;2023-11-21T10:51:46;1.42;;;1.17;;
81508;SDS011;70930;52.412;13.554;2023-11-21T10:54:22;1.35;;;1.10;;
81508;SDS011;70930;52.412;13.554;2023-11-21T10:56:50;1.83;;;1.10;;
81508;SDS011;70930;52.412;13.554;2023-11-21T10:59:22;2.45;;;1.42;;
81508;SDS011;70930;52.412;13.554;2023-11-21T11:01:51;2.45;;;1.20;;
81508;SDS011;70930;52.412;13.554;2023-11-21T11:04:18;4.45;;;1.65;;
81508;SDS011;70930;52.412;13.554;2023-11-21T11:06:44;3.38;;;1.90;;
81508;SDS011;70930;52.412;13.554;2023-11-21T11:09:16;3.47;;;2.33;;
81508;SDS011;70930;52.412;13.554;2023-11-21T11:11:43;4.35;;;2.20;;
81508;SDS011;70930;52.412;13.554;2023-11-21T11:14:11;3.85;;;2.13;;
81508;SDS011;70930;52.412;13.554;2023-11-21T11:16:40;3.05;;;2.30;;
81508;SDS011;70930;52.412;13.554;2023-11-21T11:19:07;4.00;;;2.20;;
81508;SDS011;70930;52.412;13.554;2023-11-21T11:21:43;3.95;;;2.00;;
81508;SDS011;70930;52.412;13.554;2023-11-21T11:38:18;4.28;;;2.17;;
81508;SDS011;70930;52.412;13.554;2023-11-21T11:40:46;3.17;;;2.28;;
81508;SDS011;70930;52.412;13.554;2023-11-21T11:43:12;2.67;;;2.08;;
81508;SDS011;70930;52.412;13.554;2023-11-21T11:45:38;2.97;;;1.98;;
81508;SDS011;70930;52.412;13.554;2023-11-21T11:50:33;3.30;;;2.22;;
81508;SDS011;70930;52.412;13.554;2023-11-21T11:53:12;4.00;;;2.53;;
81508;SDS011;70930;52.412;13.554;2023-11-21T11:55:39;4.00;;;2.90;;
81508;SDS011;70930;52.412;13.554;2023-11-21T11:58:05;3.88;;;2.22;;
81508;SDS011;70930;52.412;13.554;2023-11-21T12:02:58;4.65;;;2.70;;
81508;SDS011;70930;52.412;13.554;2023-11-21T12:05:27;3.92;;;2.20;;
81508;SDS011;70930;52.412;13.554;2023-11-21T12:10:23;3.45;;;1.80;;
81508;SDS011;70930;52.412;13.554;2023-11-21T12:15:20;3.63;;;2.40;;
81508;SDS011;70930;52.412;13.554;2023-11-21T12:17:47;5.38;;;2.53;;
81508;SDS011;70930;52.412;13.554;2023-11-21T12:20:14;4.38;;;2.67;;
81508;SDS011;70930;52.412;13.554;2023-11-21T12:22:45;4.15;;;2.17;;
81508;SDS011;70930;52.412;13.554;2023-11-21T12:25:18;3.47;;;2.55;;
81508;SDS011;70930;52.412;13.554;2023-11-21T12:27:45;3.08;;;2.22;;
81508;SDS011;70930;52.412;13.554;2023-11-21T12:30:11;3.92;;;2.22;;
81508;SDS011;70930;52.412;13.554;2023-11-21T12:32:47;4.10;;;2.05;;
81508;SDS011;70930;52.412;13.554;2023-11-21T12:35:13;2.90;;;2.05;;
81508;SDS011;70930;52.412;13.554;2023-11-21T12:37:39;3.88;;;2.47;;
81508;SDS011;70930;52.412;13.554;2023-11-21T12:40:08;2.38;;;1.92;;
81508;SDS011;70930;52.412;13.554;2023-11-21T12:45:21;3.13;;;2.40;;
81508;SDS011;70930;52.412;13.554;2023-11-21T12:47:53;3.20;;;1.83;;
81508;SDS011;70930;52.412;13.554;2023-11-21T12:50:20;3.15;;;2.17;;
81508;SDS011;70930;52.412;13.554;2023-11-21T12:52:49;4.75;;;2.67;;
81508;SDS011;70930;52.412;13.554;2023-11-21T12:55:16;4.93;;;2.85;;
81508;SDS011;70930;52.412;13.554;2023-11-21T12:57:53;4.28;;;2.90;;
81508;SDS011;70930;52.412;13.554;2023-11-21T13:00:19;3.40;;;2.60;;
81508;SDS011;70930;52.412;13.554;2023-11-21T13:02:56;5.35;;;2.80;;
81508;SDS011;70930;52.412;13.554;2023-11-21T13:05:28;3.88;;;2.65;;
81508;SDS011;70930;52.412;13.554;2023-11-21T13:07:55;4.60;;;2.97;;
81508;SDS011;70930;52.412;13.554;2023-11-21T13:10:25;4.60;;;3.30;;
81508;SDS011;70930;52.412;13.554;2023-11-21T13:13:02;3.83;;;2.72;;
81508;SDS011;70930;52.412;13.554;2023-11-21T13:15:30;9.23;;;4.35;;
81508;SDS011;70930;52.412;13.554;2023-11-21T13:17:57;9.18;;;5.47;;
81508;SDS011;70930;52.412;13.554;2023-11-21T13:20:26;4.72;;;3.25;;
81508;SDS011;70930;52.412;13.554;2023-11-21T13:22:53;7.25;;;3.70;;
81508;SDS011;70930;52.412;13.554;2023-11-21T13:25:28;3.78;;;2.53;;
81508;SDS011;70930;52.412;13.554;2023-11-21T13:27:54;4.43;;;3.20;;
81508;SDS011;70930;52.412;13.554;2023-11-21T13:30:20;4.97;;;2.70;;
81508;SDS011;70930;52.412;13.554;2023-11-21T13:32:58;5.68;;;3.15;;
81508;SDS011;70930;52.412;13.554;2023-11-21T13:35:29;4.43;;;3.15;;
81508;SDS011;70930;52.412;13.554;2023-11-21T13:38:07;5.18;;;3.03;;
81508;SDS011;70930;52.412;13.554;2023-11-21T13:40:34;4.00;;;2.55;;
81508;SDS011;70930;52.412;13.554;2023-11-21T13:43:15;5.82;;;3.25;;
81508;SDS011;70930;52.412;13.554;2023-11-21T13:45:43;3.90;;;2.50;;
81508;SDS011;70930;52.412;13.554;2023-11-21T13:48:13;4.47;;;2.88;;
81508;SDS011;70930;52.412;13.554;2023-11-21T13:50:42;5.78;;;3.50;;
81508;SDS011;70930;52.412;13.554;2023-11-21T13:53:22;5.78;;;2.83;;
81508;SDS011;70930;52.412;13.554;2023-11-21T13:55:48;6.03;;;3.72;;
81508;SDS011;70930;52.412;13.554;2023-11-21T13:58:19;4.70;;;3.00;;
81508;SDS011;70930;52.412;13.554;2023-11-21T14:00:48;5.72;;;3.47;;
81508;SDS011;70930;52.412;13.554;2023-11-21T14:03:21;4.93;;;3.17;;
81508;SDS011;70930;52.412;13.554;2023-11-21T14:05:48;5.13;;;3.50;;
81508;SDS011;70930;52.412;13.554;2023-11-21T14:08:19;5.85;;;3.67;;
81508;SDS011;70930;52.412;13.554;2023-11-21T14:10:49;5.78;;;3.75;;
81508;SDS011;70930;52.412;13.554;2023-11-21T14:13:22;4.88;;;3.60;;
81508;SDS011;70930;52.412;13.554;2023-11-21T14:15:53;5.65;;;3.42;;
81508;SDS011;70930;52.412;13.554;2023-11-21T14:18:26;5.10;;;3.83;;
81508;SDS011;70930;52.412;13.554;2023-11-21T14:21:04;7.60;;;4.45;;
81508;SDS011;70930;52.412;13.554;2023-11-21T14:23:30;6.40;;;4.18;;
81508;SDS011;70930;52.412;13.554;2023-11-21T14:25:56;9.65;;;5.45;;
81508;SDS011;70930;52.412;13.554;2023-11-21T14:28:22;8.95;;;5.88;;
81508;SDS011;70930;52.412;13.554;2023-11-21T14:30:48;9.05;;;5.63;;
81508;SDS011;70930;52.412;13.554;2023-11-21T14:33:13;10.57;;;6.43;;
81508;SDS011;70930;52.412;13.554;2023-11-21T14:35:41;9.65;;;6.03;;
81508;SDS011;70930;52.412;13.554;2023-11-21T14:38:07;9.98;;;6.00;;
81508;SDS011;70930;52.412;13.554;2023-11-21T14:40:36;16.73;;;9.57;;
81508;SDS011;70930;52.412;13.554;2023-11-21T14:43:02;15.98;;;9.45;;
81508;SDS011;70930;52.412;13.554;2023-11-21T14:47:56;12.73;;;7.15;;
81508;SDS011;70930;52.412;13.554;2023-11-21T14:50:34;14.65;;;8.65;;
81508;SDS011;70930;52.412;13.554;2023-11-21T14:53:06;18.08;;;8.63;;
81508;SDS011;70930;52.412;13.554;2023-11-21T14:55:32;14.73;;;8.32;;
81508;SDS011;70930;52.412;13.554;2023-11-21T14:58:06;17.95;;;10.07;;